createdAt,value
2023-05-24T00:01:11.328Z,12.80
2023-05-24T00:06:15.254Z,12.70
2023-05-24T00:11:21.451Z,12.70
2023-05-24T00:16:25.014Z,12.60
2023-05-24T00:21:31.111Z,12.50
2023-05-24T00:26:35.944Z,12.50
2023-05-24T00:31:39.430Z,12.40
2023-05-24T00:36:42.777Z,12.30
2023-05-24T00:41:47.578Z,12.20
2023-05-24T00:46:51.371Z,12.20
2023-05-24T00:51:56.221Z,12.20
2023-05-24T00:57:01.161Z,12.10
2023-05-24T01:02:04.636Z,12.10
2023-05-24T01:07:18.305Z,12.10
2023-05-24T01:12:31.697Z,12.10
2023-05-24T01:17:53.252Z,12.00
2023-05-24T01:23:19.814Z,12.00
2023-05-24T01:28:26.145Z,12.00
2023-05-24T01:33:29.553Z,12.00
2023-05-24T01:38:32.978Z,11.90
2023-05-24T01:43:44.391Z,11.90
2023-05-24T01:49:00.202Z,12.00
2023-05-24T01:54:06.128Z,11.90
2023-05-24T01:59:11.997Z,11.80
2023-05-24T02:04:15.479Z,11.80
2023-05-24T02:09:18.871Z,11.80
2023-05-24T02:14:24.627Z,11.80
2023-05-24T02:19:28.044Z,11.70
2023-05-24T02:24:31.387Z,11.70
2023-05-24T02:29:36.402Z,11.70
2023-05-24T02:34:44.672Z,11.70
2023-05-24T02:39:48.178Z,11.70
2023-05-24T02:44:59.098Z,11.60
2023-05-24T02:50:02.529Z,11.60
2023-05-24T02:55:08.718Z,11.60
2023-05-24T03:00:16.507Z,11.50
2023-05-24T03:05:22.706Z,11.50
2023-05-24T03:10:26.451Z,11.40
2023-05-24T03:15:31.447Z,11.40
2023-05-24T03:20:35.001Z,11.30
2023-05-24T03:25:38.739Z,11.20
2023-05-24T03:30:44.888Z,11.20
2023-05-24T03:35:50.810Z,11.20
2023-05-24T03:40:54.300Z,11.10
2023-05-24T03:45:59.385Z,11.10
2023-05-24T03:51:04.155Z,11.10
2023-05-24T03:56:14.273Z,11.10
2023-05-24T04:01:32.495Z,11.00
2023-05-24T04:06:38.301Z,11.00
2023-05-24T04:11:43.106Z,11.00
2023-05-24T04:16:48.615Z,11.00
2023-05-24T04:21:54.196Z,11.00
2023-05-24T04:26:58.428Z,11.10
2023-05-24T04:32:03.301Z,11.00
2023-05-24T04:37:07.538Z,11.20
2023-05-24T04:42:13.507Z,11.10
2023-05-24T04:47:18.357Z,11.10
2023-05-24T04:52:23.313Z,11.20
2023-05-24T04:57:32.965Z,11.10
2023-05-24T05:02:37.924Z,11.20
2023-05-24T05:07:44.373Z,11.30
2023-05-24T05:12:47.962Z,11.40
2023-05-24T05:17:52.918Z,11.50
2023-05-24T05:22:57.082Z,11.50
2023-05-24T05:28:01.243Z,11.70
2023-05-24T05:33:06.441Z,11.60
2023-05-24T05:38:11.321Z,11.50
2023-05-24T05:43:21.279Z,11.50
2023-05-24T05:48:29.494Z,11.50
2023-05-24T05:53:37.289Z,11.70
2023-05-24T05:58:43.660Z,11.70
2023-05-24T06:03:48.826Z,11.80
2023-05-24T06:08:56.120Z,11.80
2023-05-24T06:14:03.104Z,11.90
2023-05-24T06:19:10.311Z,11.90
2023-05-24T06:24:19.372Z,12.00
2023-05-24T06:29:26.002Z,12.00
2023-05-24T06:34:30.913Z,12.10
2023-05-24T06:39:37.548Z,12.60
2023-05-24T06:44:46.320Z,13.10
2023-05-24T06:49:51.176Z,13.10
2023-05-24T06:55:03.164Z,13.30
2023-05-24T07:05:42.994Z,13.50
2023-05-24T07:10:49.458Z,13.20
2023-05-24T07:16:00.945Z,13.20
2023-05-24T07:21:06.632Z,13.10
2023-05-24T07:26:16.842Z,13.20
2023-05-24T07:36:52.626Z,13.60
2023-05-24T07:41:59.401Z,13.60
2023-05-24T07:47:03.791Z,13.90
2023-05-24T07:52:11.982Z,13.90
2023-05-24T07:57:19.279Z,13.90
2023-05-24T08:02:48.638Z,13.70
2023-05-24T08:07:53.924Z,13.50
2023-05-24T08:13:04.592Z,13.20
2023-05-24T08:18:12.686Z,13.10
2023-05-24T08:23:27.426Z,12.80
2023-05-24T08:28:37.586Z,12.70
2023-05-24T08:33:41.315Z,12.60
2023-05-24T08:38:46.409Z,12.50
2023-05-24T08:43:59.337Z,12.60
2023-05-24T08:49:04.338Z,12.70
2023-05-24T08:54:14.047Z,12.90
2023-05-24T08:59:18.237Z,13.00
2023-05-24T09:04:24.326Z,13.00
2023-05-24T09:09:34.256Z,13.50
2023-05-24T09:20:15.732Z,14.80
2023-05-24T09:25:23.022Z,15.40
2023-05-24T09:30:27.555Z,15.60
2023-05-24T09:35:33.212Z,15.90
2023-05-24T09:40:41.193Z,15.80
2023-05-24T09:45:51.534Z,16.70
2023-05-24T09:51:05.812Z,17.10
2023-05-24T09:56:20.298Z,16.40
2023-05-24T10:01:27.499Z,16.20
2023-05-24T10:06:38.024Z,15.50
2023-05-24T10:11:43.590Z,15.30
2023-05-24T10:16:54.692Z,14.90
2023-05-24T10:22:11.065Z,14.40
2023-05-24T10:27:22.133Z,13.80
2023-05-24T10:32:31.841Z,13.70
2023-05-24T10:37:45.059Z,13.80
2023-05-24T10:43:00.154Z,13.80
2023-05-24T10:48:43.606Z,13.50
2023-05-24T10:53:47.188Z,13.60
2023-05-24T10:59:02.716Z,13.40
2023-05-24T11:04:15.924Z,13.30
2023-05-24T11:09:21.653Z,13.40
2023-05-24T11:14:31.456Z,13.40
2023-05-24T11:19:38.279Z,13.30
2023-05-24T11:24:44.631Z,13.40
2023-05-24T11:29:50.518Z,13.20
2023-05-24T11:35:03.175Z,13.40
2023-05-24T11:40:11.164Z,13.20
2023-05-24T11:45:28.207Z,13.00
2023-05-24T11:50:45.752Z,13.10
2023-05-24T11:55:54.650Z,13.00
2023-05-24T12:00:59.898Z,13.30
2023-05-24T12:06:09.649Z,13.40
2023-05-24T12:11:16.299Z,13.60
2023-05-24T12:16:23.874Z,13.40
2023-05-24T12:21:35.526Z,13.30
2023-05-24T12:26:45.118Z,13.50
2023-05-24T12:32:15.680Z,14.00
2023-05-24T12:37:19.940Z,14.30
2023-05-24T12:42:55.027Z,14.50
2023-05-24T12:48:07.808Z,14.70
2023-05-24T12:53:20.226Z,15.10
2023-05-24T12:58:27.608Z,15.70
2023-05-24T13:03:34.627Z,15.50
2023-05-24T13:09:09.369Z,15.30
2023-05-24T13:14:13.077Z,16.20
2023-05-24T13:19:21.235Z,16.20
2023-05-24T13:24:31.460Z,15.40
2023-05-24T13:29:59.300Z,15.40
2023-05-24T13:35:13.476Z,15.60
2023-05-24T13:40:27.353Z,15.90
2023-05-24T13:45:34.943Z,15.40
2023-05-24T13:50:46.273Z,15.80
2023-05-24T13:55:53.619Z,15.90
2023-05-24T14:00:59.634Z,15.50
2023-05-24T14:06:07.999Z,16.10
2023-05-24T14:11:19.267Z,15.80
2023-05-24T14:16:24.114Z,15.60
2023-05-24T14:21:29.277Z,15.50
2023-05-24T14:26:34.901Z,15.80
2023-05-24T14:31:44.682Z,15.80
2023-05-24T14:36:54.037Z,15.90
2023-05-24T14:42:14.513Z,15.80
2023-05-24T14:47:38.186Z,15.90
2023-05-24T14:52:49.966Z,16.30
2023-05-24T14:57:58.064Z,16.10
2023-05-24T15:03:18.140Z,15.80
2023-05-24T15:08:39.157Z,15.80
2023-05-24T15:13:49.835Z,16.10
2023-05-24T15:19:00.956Z,15.90
2023-05-24T15:24:17.785Z,15.90
2023-05-24T15:29:29.641Z,15.90
2023-05-24T15:34:38.314Z,15.70
2023-05-24T15:39:54.362Z,15.90
2023-05-24T15:44:58.925Z,15.90
2023-05-24T15:50:04.484Z,15.80
2023-05-24T15:55:16.721Z,15.90
2023-05-24T16:00:28.806Z,15.60
2023-05-24T16:11:22.085Z,15.40
2023-05-24T16:21:34.576Z,15.60
2023-05-24T16:26:45.159Z,15.40
2023-05-24T16:31:53.157Z,15.40
2023-05-24T16:37:08.986Z,15.40
2023-05-24T16:42:17.363Z,15.40
2023-05-24T16:47:31.093Z,15.40
2023-05-24T16:52:44.504Z,15.30
2023-05-24T16:57:53.177Z,15.10
2023-05-24T17:03:11.145Z,15.00
2023-05-24T17:08:24.202Z,14.60
2023-05-24T17:13:38.577Z,14.30
2023-05-24T17:18:43.661Z,14.10
2023-05-24T17:23:51.641Z,14.20
2023-05-24T17:28:57.097Z,14.30
2023-05-24T17:34:03.301Z,14.40
2023-05-24T17:39:08.002Z,14.30
2023-05-24T17:44:20.160Z,14.30
2023-05-24T17:49:35.665Z,14.20
2023-05-24T17:54:40.213Z,14.00
2023-05-24T17:59:45.330Z,13.90
2023-05-24T18:04:51.653Z,13.80
2023-05-24T18:09:57.640Z,13.60
2023-05-24T18:15:10.787Z,13.40
2023-05-24T18:20:23.959Z,13.20
2023-05-24T18:25:30.518Z,13.00
2023-05-24T18:30:40.815Z,12.80
2023-05-24T18:35:51.999Z,12.60
2023-05-24T18:40:56.676Z,12.30
2023-05-24T18:46:02.772Z,12.10
2023-05-24T18:51:09.122Z,12.00
2023-05-24T18:56:15.196Z,11.70
2023-05-24T19:06:54.583Z,11.30
2023-05-24T19:12:03.102Z,11.20
2023-05-24T19:17:08.485Z,11.10
2023-05-24T19:22:15.111Z,11.00
2023-05-24T19:27:18.843Z,10.90
2023-05-24T19:32:29.185Z,10.70
2023-05-24T19:43:02.467Z,10.40
2023-05-24T19:48:10.474Z,10.20
2023-05-24T19:53:16.302Z,10.10
2023-05-24T19:58:20.930Z,10.10
2023-05-24T20:03:26.440Z,10.10
2023-05-24T20:08:30.065Z,10.00
2023-05-24T20:13:36.759Z,9.90
2023-05-24T20:18:42.824Z,10.00
2023-05-24T20:23:49.672Z,10.20
2023-05-24T20:28:53.852Z,10.30
2023-05-24T20:34:00.574Z,10.40
2023-05-24T20:39:11.142Z,10.40
2023-05-24T20:44:14.894Z,10.40
2023-05-24T20:49:25.184Z,10.40
2023-05-24T20:54:29.621Z,10.40
2023-05-24T20:59:42.005Z,10.40
2023-05-24T21:04:47.479Z,10.40
2023-05-24T21:09:53.019Z,10.40
2023-05-24T21:14:58.863Z,10.40
2023-05-24T21:20:07.372Z,10.30
2023-05-24T21:25:16.358Z,10.20
2023-05-24T21:30:20.161Z,10.10
2023-05-24T21:35:25.467Z,10.10
2023-05-24T21:40:33.199Z,10.00
2023-05-24T21:45:37.024Z,10.00
2023-05-24T21:50:42.518Z,10.10
2023-05-24T21:55:47.296Z,10.20
2023-05-24T22:00:52.319Z,10.10
2023-05-24T22:05:57.278Z,10.10
2023-05-24T22:11:02.358Z,10.20
2023-05-24T22:16:06.756Z,10.20
2023-05-24T22:21:14.486Z,10.20
2023-05-24T22:26:17.995Z,10.00
2023-05-24T22:31:24.303Z,9.90
2023-05-24T22:36:33.297Z,9.80
2023-05-24T22:41:36.922Z,9.70
2023-05-24T22:46:53.870Z,9.70
2023-05-24T22:51:59.581Z,9.70
2023-05-24T22:57:03.549Z,9.80
2023-05-24T23:02:07.012Z,9.80
2023-05-24T23:07:13.554Z,9.90
2023-05-24T23:12:18.521Z,9.90
2023-05-24T23:17:22.461Z,9.90
2023-05-24T23:22:27.383Z,9.80
2023-05-24T23:27:33.769Z,9.80
2023-05-24T23:32:37.295Z,9.80
2023-05-24T23:37:50.047Z,9.80
2023-05-24T23:42:55.411Z,9.70
2023-05-24T23:47:59.469Z,9.60
2023-05-24T23:53:05.642Z,9.60
2023-05-24T23:58:10.652Z,9.50
